Oak Creek, Nebraska
Current Conditions -  °F | °C
As of 7:53 PM on Friday 28 Nov 2014 (Local Time) from KODX Reporting Station
Clear Clear  
Wind Chill: 43°   Ceiling: Unl
Heat Index: 43°   Visibility: 10mi
Dew Point: 21°   Wind: 0mph
Humidity: 42%   Direction: NA
Pressure: 29.61"   Gusts: NA
Location:  41.3026°N, 99.0141°W
Report Text: KODX 290153Z AUTO 00000KT 10SM CLR 06/M06 A2961 RMK AO2 SLP046 T00611061
Loading
Personal Weather Stations






























Interactive Weather Map New forecast layout! Learn more

10-Day Weather Forecast

Advertisements
Track Severe Weather on mobile